Time;durP1;ratioP1;P1;durP2;ratioP2;P2;SDS_P1;SDS_P2;PMS_P1;PMS_P2;Temp;Humidity;BMP_temperature;BMP_pressure;BME280_temperature;BME280_humidity;BME280_pressure;Samples;Min_cycle;Max_cycle;Signal;HPM_P1;HPM_P2
2023/04/01 00:01:38;;;;;;;6.53;2.60;;;11.20;99.90;;;;;;5050724;28;20696;-71
2023/04/01 00:04:04;;;;;;;10.55;3.70;;;11.30;99.90;;;;;;5044743;28;20018;-73
2023/04/01 00:06:30;;;;;;;6.03;2.40;;;11.30;99.90;;;;;;5042195;28;20033;-72
2023/04/01 00:08:56;;;;;;;6.25;2.58;;;11.30;99.90;;;;;;5050437;28;20036;-72
2023/04/01 00:11:22;;;;;;;7.80;3.30;;;11.20;99.90;;;;;;5049013;28;20028;-72
2023/04/01 00:13:49;;;;;;;9.23;2.83;;;11.20;99.90;;;;;;5043368;28;20082;-71
2023/04/01 00:16:15;;;;;;;8.05;2.17;;;11.10;99.90;;;;;;5042600;28;20047;-72
2023/04/01 00:18:41;;;;;;;8.60;4.07;;;11.10;99.90;;;;;;5037064;28;20053;-72
2023/04/01 00:21:06;;;;;;;8.55;3.28;;;11.10;99.90;;;;;;5041879;28;20041;-72
2023/04/01 00:23:32;;;;;;;7.65;2.72;;;11.10;99.90;;;;;;5044625;28;20017;-73
2023/04/01 00:26:02;;;;;;;8.13;3.20;;;11.20;99.90;;;;;;5040029;28;20048;-72
2023/04/01 00:28:28;;;;;;;4.82;3.22;;;11.20;99.90;;;;;;5045102;28;20030;-72
2023/04/01 00:30:54;;;;;;;8.43;4.63;;;11.20;99.90;;;;;;5040019;28;20029;-71
2023/04/01 00:33:20;;;;;;;7.95;3.72;;;11.20;99.90;;;;;;5048393;28;20052;-73
2023/04/01 00:35:46;;;;;;;10.55;3.60;;;11.20;99.90;;;;;;5038259;28;20439;-72
2023/04/01 00:38:12;;;;;;;11.32;3.95;;;11.20;99.90;;;;;;5047407;28;20029;-72
2023/04/01 00:40:42;;;;;;;7.55;4.78;;;11.20;99.90;;;;;;5050902;28;20032;-73
2023/04/01 00:43:26;;;;;;;12.55;6.45;;;11.20;99.90;;;;;;5050373;28;20028;-71
2023/04/01 00:45:52;;;;;;;8.75;5.13;;;11.30;99.90;;;;;;5049447;28;20135;-72
2023/04/01 00:48:20;;;;;;;7.90;4.97;;;11.30;99.90;;;;;;5049925;28;20128;-71
2023/04/01 00:50:55;;;;;;;9.98;5.97;;;11.20;99.90;;;;;;5044634;28;20021;-72
2023/04/01 00:53:22;;;;;;;9.30;5.40;;;11.30;99.90;;;;;;5043757;28;20017;-72
2023/04/01 00:56:05;;;;;;;13.52;7.18;;;11.30;99.90;;;;;;5050399;28;20017;-72
2023/04/01 00:58:35;;;;;;;15.40;9.00;;;11.30;99.90;;;;;;5042272;28;20048;-71
2023/04/01 01:01:01;;;;;;;12.63;7.82;;;11.40;99.90;;;;;;5043005;28;20037;-72
2023/04/01 01:03:27;;;;;;;15.15;9.27;;;11.30;99.90;;;;;;5042401;28;20684;-71
2023/04/01 01:06:05;;;;;;;17.67;10.32;;;11.40;99.90;;;;;;5038654;28;20049;-72
2023/04/01 01:08:31;;;;;;;21.30;12.90;;;11.30;99.90;;;;;;5043449;28;20028;-72
2023/04/01 01:10:56;;;;;;;19.52;13.73;;;11.30;99.90;;;;;;5049951;28;20061;-72
2023/04/01 01:13:22;;;;;;;20.00;13.13;;;11.20;99.90;;;;;;5048220;28;20475;-71
2023/04/01 01:15:55;;;;;;;19.77;13.05;;;11.30;99.90;;;;;;5050015;28;20067;-72
2023/04/01 01:18:59;;;;;;;22.23;15.02;;;11.30;99.90;;;;;;5049068;28;20041;-72
2023/04/01 01:21:36;;;;;;;19.42;13.95;;;11.30;99.90;;;;;;5042123;28;20041;-72
2023/04/01 01:24:14;;;;;;;19.15;14.02;;;11.30;99.90;;;;;;5044536;28;20024;-72
2023/04/01 01:27:11;;;;;;;25.55;16.38;;;11.30;99.90;;;;;;5034626;28;20037;-72
2023/04/01 01:29:49;;;;;;;23.83;15.90;;;11.20;99.90;;;;;;5043354;28;20014;-73
2023/04/01 01:32:40;;;;;;;17.13;11.35;;;11.30;99.90;;;;;;5041739;28;20017;-72
2023/04/01 01:35:34;;;;;;;21.70;14.15;;;11.30;99.90;;;;;;5043180;28;20033;-74
2023/04/01 01:38:05;;;;;;;22.33;13.05;;;11.40;99.90;;;;;;5042918;28;20594;-74
2023/04/01 01:40:34;;;;;;;22.67;15.38;;;11.40;99.90;;;;;;5045116;28;20037;-74
2023/04/01 01:43:05;;;;;;;28.20;18.15;;;11.40;99.90;;;;;;5049349;28;20022;-74
2023/04/01 01:45:34;;;;;;;20.50;15.55;;;11.30;99.90;;;;;;5047174;28;20776;-74
2023/04/01 01:48:01;;;;;;;16.40;12.50;;;11.30;99.90;;;;;;5039495;28;20053;-73
2023/04/01 01:50:27;;;;;;;20.40;14.90;;;11.30;99.90;;;;;;5037970;28;20396;-73
2023/04/01 01:53:02;;;;;;;28.30;17.70;;;11.40;99.90;;;;;;5034468;28;20084;-74
2023/04/01 01:55:34;;;;;;;17.85;12.70;;;11.30;99.90;;;;;;5042265;28;20121;-72
2023/04/01 01:58:09;;;;;;;21.20;14.80;;;11.20;99.90;;;;;;5031657;28;20025;-72
2023/04/01 02:00:35;;;;;;;21.02;12.63;;;11.30;99.90;;;;;;5035515;28;20112;-75
2023/04/01 02:03:01;;;;;;;18.77;10.73;;;11.30;99.90;;;;;;5039337;28;20120;-73
2023/04/01 02:05:30;;;;;;;22.08;10.68;;;11.20;99.90;;;;;;5035084;28;20096;-72
2023/04/01 02:08:09;;;;;;;19.77;9.35;;;11.20;99.90;;;;;;5037522;28;20519;-72
2023/04/01 02:10:39;;;;;;;21.83;9.95;;;11.20;99.90;;;;;;5037231;28;20092;-72
2023/04/01 02:13:13;;;;;;;25.10;12.27;;;11.20;99.90;;;;;;5044831;28;20049;-72
2023/04/01 02:15:45;;;;;;;21.13;10.57;;;11.20;99.90;;;;;;5035515;28;20020;-72
2023/04/01 02:18:13;;;;;;;27.83;12.20;;;11.20;99.90;;;;;;5046319;28;20546;-71
2023/04/01 02:20:40;;;;;;;24.83;10.32;;;11.10;99.90;;;;;;5043164;28;20029;-71
2023/04/01 02:23:07;;;;;;;15.63;7.90;;;11.20;99.90;;;;;;5045992;28;20032;-72
2023/04/01 02:25:36;;;;;;;20.90;9.10;;;11.20;99.90;;;;;;5034604;28;20040;-72
2023/04/01 02:28:03;;;;;;;19.63;9.32;;;11.10;99.90;;;;;;5044018;28;20017;-72
2023/04/01 02:30:31;;;;;;;23.88;9.48;;;11.10;99.90;;;;;;5036165;28;20368;-72
2023/04/01 02:32:59;;;;;;;26.02;9.48;;;11.20;99.90;;;;;;5048568;28;20032;-72
2023/04/01 02:35:25;;;;;;;23.13;9.50;;;11.20;99.90;;;;;;5037106;28;20049;-73
2023/04/01 02:37:53;;;;;;;14.10;7.68;;;11.20;99.90;;;;;;5045716;28;20044;-73
2023/04/01 02:40:19;;;;;;;17.80;8.38;;;11.20;99.90;;;;;;5048117;28;20044;-73
2023/04/01 02:42:45;;;;;;;20.05;7.78;;;11.10;99.90;;;;;;5046623;28;20057;-72
2023/04/01 02:45:12;;;;;;;17.23;8.30;;;11.10;99.90;;;;;;5038207;28;20492;-73
2023/04/01 02:47:38;;;;;;;24.63;10.85;;;11.10;99.90;;;;;;5049907;28;20480;-72
2023/04/01 02:50:04;;;;;;;23.45;8.70;;;11.10;99.90;;;;;;5043272;28;20028;-73
2023/04/01 02:52:30;;;;;;;18.35;7.22;;;11.10;99.90;;;;;;5047583;28;20074;-73
2023/04/01 02:54:57;;;;;;;14.35;6.45;;;11.10;99.90;;;;;;5037707;28;20096;-73
2023/04/01 02:57:23;;;;;;;15.90;6.75;;;11.00;99.90;;;;;;5045709;28;20052;-73
2023/04/01 02:59:49;;;;;;;19.27;8.20;;;11.00;99.90;;;;;;5048515;28;20029;-72
2023/04/01 03:02:16;;;;;;;13.65;6.38;;;11.00;99.90;;;;;;5037727;28;20085;-73
2023/04/01 03:04:43;;;;;;;19.33;8.15;;;11.10;99.90;;;;;;5046557;28;20029;-73
2023/04/01 03:07:09;;;;;;;17.55;7.70;;;11.10;99.90;;;;;;5033126;28;20025;-73
2023/04/01 03:09:36;;;;;;;13.25;6.85;;;11.10;99.90;;;;;;5044088;28;20059;-72
2023/04/01 03:12:02;;;;;;;14.52;8.18;;;11.10;99.90;;;;;;5034964;28;20055;-73
2023/04/01 03:14:28;;;;;;;14.00;8.55;;;11.20;99.90;;;;;;5052205;28;20017;-73
2023/04/01 03:16:53;;;;;;;11.95;6.90;;;11.20;99.90;;;;;;5035687;28;20021;-73
2023/04/01 03:19:19;;;;;;;15.65;9.00;;;11.10;99.90;;;;;;5040872;28;20506;-72
2023/04/01 03:21:45;;;;;;;15.38;8.80;;;11.10;99.90;;;;;;5031583;28;20021;-72
2023/04/01 03:24:10;;;;;;;11.90;6.65;;;11.10;99.90;;;;;;5045176;28;20464;-73
2023/04/01 03:26:38;;;;;;;11.30;7.35;;;11.10;99.90;;;;;;5044256;28;20059;-73
2023/04/01 03:29:04;;;;;;;14.32;8.23;;;11.10;99.90;;;;;;5042709;28;20511;-72
2023/04/01 03:31:30;;;;;;;13.90;7.65;;;11.10;99.90;;;;;;5047486;28;20022;-73
2023/04/01 03:33:56;;;;;;;11.30;8.50;;;11.10;99.90;;;;;;5040870;28;20031;-73
2023/04/01 03:36:21;;;;;;;12.15;8.10;;;11.00;99.90;;;;;;5051231;28;20748;-73
2023/04/01 03:38:47;;;;;;;14.55;7.32;;;11.10;99.90;;;;;;5051208;28;20017;-73
2023/04/01 03:41:17;;;;;;;11.57;6.60;;;11.00;99.90;;;;;;5039886;28;20033;-73
2023/04/01 03:43:43;;;;;;;11.18;8.10;;;11.00;99.90;;;;;;5037719;28;20029;-73
2023/04/01 03:46:09;;;;;;;11.48;7.80;;;11.00;99.90;;;;;;5040770;28;20034;-71
2023/04/01 03:48:35;;;;;;;12.95;7.82;;;10.90;99.90;;;;;;5032724;28;20036;-72
2023/04/01 03:51:01;;;;;;;8.60;5.80;;;11.00;99.90;;;;;;5049239;28;20044;-74
2023/04/01 03:53:26;;;;;;;11.10;7.80;;;10.90;99.90;;;;;;5037320;28;20029;-73
2023/04/01 03:55:53;;;;;;;11.20;7.25;;;11.00;99.90;;;;;;5050527;28;20468;-72
2023/04/01 03:58:19;;;;;;;13.77;7.93;;;10.90;99.90;;;;;;5037503;28;20037;-72
2023/04/01 04:00:45;;;;;;;12.68;8.48;;;11.00;99.90;;;;;;5051351;28;20041;-72
2023/04/01 04:03:11;;;;;;;14.68;9.50;;;10.90;99.90;;;;;;5036547;28;20395;-73
2023/04/01 04:05:37;;;;;;;17.15;9.65;;;10.90;99.90;;;;;;5050991;28;20067;-72
2023/04/01 04:08:02;;;;;;;10.73;7.43;;;10.90;99.90;;;;;;5045508;28;20113;-73
2023/04/01 04:10:29;;;;;;;14.60;9.98;;;10.90;99.90;;;;;;5041227;28;20123;-73
2023/04/01 04:12:55;;;;;;;15.57;10.75;;;10.90;99.90;;;;;;5047356;28;20044;-72
2023/04/01 04:15:21;;;;;;;15.52;11.50;;;10.90;99.90;;;;;;5044014;28;20016;-72
2023/04/01 04:17:47;;;;;;;14.43;9.10;;;10.90;99.90;;;;;;5051158;28;20049;-73
2023/04/01 04:20:13;;;;;;;18.50;11.57;;;10.90;99.90;;;;;;5049529;28;20040;-72
2023/04/01 04:22:38;;;;;;;15.38;10.00;;;10.90;99.90;;;;;;5048682;28;20108;-73
2023/04/01 04:25:05;;;;;;;21.40;12.02;;;10.90;99.90;;;;;;5041923;28;20028;-73
2023/04/01 04:27:30;;;;;;;18.35;11.65;;;11.00;99.90;;;;;;5045259;28;20025;-72
2023/04/01 04:29:56;;;;;;;15.45;9.93;;;10.90;99.90;;;;;;5047199;28;20025;-72
2023/04/01 04:32:21;;;;;;;19.48;13.43;;;10.90;99.90;;;;;;5046954;28;20444;-73
2023/04/01 04:34:47;;;;;;;18.00;11.10;;;10.90;99.90;;;;;;5032883;28;20100;-72
2023/04/01 04:37:13;;;;;;;22.10;14.10;;;10.80;99.90;;;;;;5050457;28;20096;-72
2023/04/01 04:39:38;;;;;;;19.27;12.68;;;10.80;99.90;;;;;;5043782;28;20041;-72
2023/04/01 04:42:05;;;;;;;20.58;13.75;;;10.80;99.90;;;;;;5049318;28;20486;-73
2023/04/01 04:44:31;;;;;;;20.90;13.88;;;10.80;99.90;;;;;;5050051;28;20021;-73
2023/04/01 04:46:56;;;;;;;21.50;13.98;;;10.80;99.90;;;;;;5049739;28;20028;-73
2023/04/01 04:49:22;;;;;;;18.33;12.25;;;10.80;99.90;;;;;;5051128;28;20052;-73
2023/04/01 04:51:48;;;;;;;19.63;13.02;;;10.80;99.90;;;;;;5050089;28;20029;-72
2023/04/01 04:54:13;;;;;;;15.90;11.48;;;10.90;99.90;;;;;;5041481;28;20065;-73
2023/04/01 04:56:39;;;;;;;14.73;9.98;;;10.80;99.90;;;;;;5041680;28;20053;-73
2023/04/01 04:59:05;;;;;;;14.05;11.10;;;10.90;99.90;;;;;;5047897;28;20017;-72
2023/04/01 05:01:30;;;;;;;16.10;10.57;;;10.90;99.90;;;;;;5047608;28;20033;-73
2023/04/01 05:03:56;;;;;;;16.10;12.25;;;10.90;99.90;;;;;;5039053;28;20109;-73
2023/04/01 05:06:22;;;;;;;17.65;12.90;;;10.90;99.90;;;;;;5046552;28;20079;-73
2023/04/01 05:08:47;;;;;;;17.58;13.15;;;10.90;99.90;;;;;;5049329;28;20858;-72
2023/04/01 05:11:15;;;;;;;18.38;12.73;;;11.00;99.90;;;;;;5049092;28;20061;-71
2023/04/01 05:13:42;;;;;;;15.23;10.65;;;11.00;99.90;;;;;;5047157;28;20025;-72
2023/04/01 05:16:12;;;;;;;14.02;10.32;;;11.00;99.90;;;;;;5048074;28;20112;-72
2023/04/01 05:18:37;;;;;;;;;;;11.10;99.90;;;;;;5045907;28;20044;-73
2023/04/01 05:21:04;;;;;;;13.02;9.60;;;11.10;99.90;;;;;;5046690;28;19931;-73
2023/04/01 05:23:32;;;;;;;12.48;8.43;;;11.10;99.90;;;;;;5047761;28;20044;-72
2023/04/01 05:26:04;;;;;;;12.45;8.88;;;11.10;99.90;;;;;;5046253;28;20056;-72
2023/04/01 05:28:30;;;;;;;11.70;9.10;;;11.20;99.90;;;;;;5049798;28;20025;-73
2023/04/01 05:31:00;;;;;;;11.80;8.88;;;11.20;99.90;;;;;;5045178;28;20037;-74
2023/04/01 05:33:26;;;;;;;14.82;9.43;;;11.20;99.90;;;;;;5046597;28;20517;-72
2023/04/01 05:35:51;;;;;;;13.05;9.95;;;11.30;99.90;;;;;;5042815;28;20384;-72
2023/04/01 05:38:17;;;;;;;13.43;8.40;;;11.30;99.90;;;;;;5042259;28;20029;-72
2023/04/01 05:40:42;;;;;;;11.90;8.55;;;11.30;99.90;;;;;;5040112;28;20464;-72
2023/04/01 05:43:08;;;;;;;9.75;7.47;;;11.40;99.90;;;;;;5036922;28;20029;-72
2023/04/01 05:45:34;;;;;;;12.35;8.20;;;11.40;99.90;;;;;;5045240;28;20514;-72
2023/04/01 05:48:00;;;;;;;10.20;7.00;;;11.50;99.90;;;;;;5041097;28;20029;-72
2023/04/01 05:50:26;;;;;;;9.50;6.43;;;11.50;99.90;;;;;;5037543;28;20029;-73
2023/04/01 05:52:52;;;;;;;8.15;5.40;;;11.50;99.90;;;;;;5034953;28;20037;-71
2023/04/01 05:55:18;;;;;;;12.45;7.78;;;11.50;99.90;;;;;;5047640;28;20017;-72
2023/04/01 05:57:45;;;;;;;9.70;6.15;;;11.50;99.90;;;;;;5037069;28;20035;-72
2023/04/01 06:00:11;;;;;;;17.52;10.23;;;11.60;99.90;;;;;;5041302;28;20032;-72
2023/04/01 06:02:38;;;;;;;22.58;12.02;;;11.50;99.90;;;;;;5047993;28;20025;-72
2023/04/01 06:05:22;;;;;;;17.10;10.25;;;11.50;99.90;;;;;;5042585;28;20100;-72
2023/04/01 06:07:50;;;;;;;16.17;9.10;;;11.50;99.90;;;;;;5031957;28;20036;-73
2023/04/01 06:10:20;;;;;;;17.20;10.27;;;11.50;99.90;;;;;;5048105;28;20021;-72
2023/04/01 06:12:58;;;;;;;20.85;13.00;;;11.50;99.90;;;;;;5031298;28;20111;-72
2023/04/01 06:15:29;;;;;;;19.98;11.77;;;11.50;99.90;;;;;;5034869;28;20028;-71
2023/04/01 06:18:15;;;;;;;25.77;15.30;;;11.50;99.90;;;;;;5033979;28;20633;-72
2023/04/01 06:21:00;;;;;;;19.30;11.25;;;11.50;99.90;;;;;;5037924;28;20106;-72
2023/04/01 06:23:26;;;;;;;14.95;7.50;;;11.60;99.90;;;;;;5037153;28;20562;-72
2023/04/01 06:25:52;;;;;;;20.02;12.07;;;11.70;99.90;;;;;;5038030;28;20104;-72
2023/04/01 06:28:20;;;;;;;26.55;14.75;;;11.70;99.90;;;;;;5034119;28;20487;-72
2023/04/01 06:31:08;;;;;;;24.48;13.00;;;11.70;99.90;;;;;;5036808;28;20025;-73
2023/04/01 06:33:42;;;;;;;24.70;12.90;;;11.70;99.90;;;;;;5036039;28;20122;-72
2023/04/01 06:36:19;;;;;;;28.88;14.43;;;11.70;99.90;;;;;;5036749;28;20697;-72
2023/04/01 06:39:19;;;;;;;20.38;11.30;;;11.70;99.90;;;;;;5037288;28;20024;-72
2023/04/01 06:42:14;;;;;;;19.33;10.55;;;11.70;99.90;;;;;;5035252;28;20033;-72
2023/04/01 06:45:18;;;;;;;23.15;12.57;;;11.70;99.90;;;;;;5037926;28;20395;-72
2023/04/01 06:48:16;;;;;;;18.50;10.15;;;11.80;99.90;;;;;;5032101;28;20029;-74
2023/04/01 06:50:43;;;;;;;15.45;8.45;;;11.80;99.90;;;;;;5042376;28;20060;-72
2023/04/01 06:53:14;;;;;;;19.80;10.13;;;11.80;99.90;;;;;;5037521;28;20052;-72
2023/04/01 06:55:55;;;;;;;17.52;9.75;;;11.80;99.90;;;;;;5042098;28;20108;-72
2023/04/01 06:58:25;;;;;;;18.58;10.98;;;11.90;99.90;;;;;;5040974;28;20029;-72
2023/04/01 07:00:57;;;;;;;14.68;7.85;;;11.90;99.90;;;;;;5041237;28;20040;-74
2023/04/01 07:03:38;;;;;;;14.65;8.13;;;12.00;99.90;;;;;;5036086;28;20026;-70
2023/04/01 07:06:08;;;;;;;14.43;8.20;;;12.10;99.90;;;;;;5036101;28;20025;-71
2023/04/01 07:08:38;;;;;;;12.40;7.32;;;12.10;99.90;;;;;;5049529;28;20044;-73
2023/04/01 07:11:14;;;;;;;12.88;6.15;;;12.10;99.90;;;;;;5050803;28;20029;-70
2023/04/01 07:13:47;;;;;;;9.32;5.00;;;12.10;99.90;;;;;;5047675;28;20108;-72
2023/04/01 07:16:38;;;;;;;11.43;4.90;;;12.20;99.90;;;;;;5044123;28;20021;-71
2023/04/01 07:19:14;;;;;;;10.05;4.85;;;12.20;99.90;;;;;;5043025;28;20041;-72
2023/04/01 07:21:54;;;;;;;7.47;3.97;;;12.20;99.90;;;;;;5044753;28;20106;-72
2023/04/01 07:24:35;;;;;;;10.20;5.28;;;12.30;99.90;;;;;;5039714;28;20016;-72
2023/04/01 07:27:01;;;;;;;8.35;4.28;;;12.30;99.90;;;;;;5044303;28;20533;-71
2023/04/01 07:29:27;;;;;;;8.05;3.90;;;12.40;99.90;;;;;;5042817;28;20017;-71
2023/04/01 07:32:11;;;;;;;7.05;3.65;;;12.40;99.90;;;;;;5045255;28;20025;-71
2023/04/01 07:34:46;;;;;;;6.70;3.58;;;12.50;99.90;;;;;;5041020;28;20024;-73
2023/04/01 07:37:22;;;;;;;6.30;2.90;;;12.40;99.90;;;;;;5041545;28;20124;-72
2023/04/01 07:40:23;;;;;;;5.25;2.75;;;12.50;99.90;;;;;;5041996;28;20033;-72
2023/04/01 07:43:21;;;;;;;4.72;2.03;;;12.50;99.90;;;;;;5033821;28;20411;-72
2023/04/01 07:46:26;;;;;;;5.70;2.08;;;12.50;99.90;;;;;;5038059;28;20013;-72
2023/04/01 07:48:57;;;;;;;5.47;2.28;;;12.40;99.90;;;;;;5043891;28;20013;-72
2023/04/01 07:51:23;;;;;;;5.13;2.15;;;12.50;99.90;;;;;;5042466;28;20475;-72
2023/04/01 07:54:17;;;;;;;3.55;1.80;;;12.50;99.90;;;;;;5043059;28;20044;-73
2023/04/01 07:57:09;;;;;;;4.22;1.88;;;12.50;99.90;;;;;;5042642;28;20116;-71
2023/04/01 07:59:48;;;;;;;3.60;1.63;;;12.50;99.90;;;;;;5044847;28;20044;-73
2023/04/01 08:02:34;;;;;;;4.72;2.33;;;12.50;99.90;;;;;;5047409;28;20029;-73
2023/04/01 08:05:16;;;;;;;4.60;2.38;;;12.50;99.90;;;;;;5041472;28;20076;-72
2023/04/01 08:08:09;;;;;;;6.28;3.00;;;12.60;99.90;;;;;;5043012;28;20025;-73
2023/04/01 08:10:50;;;;;;;5.60;3.17;;;12.60;99.90;;;;;;5050378;28;20187;-73
2023/04/01 08:13:34;;;;;;;6.53;3.55;;;12.60;99.90;;;;;;5042274;28;20020;-73
2023/04/01 08:16:24;;;;;;;5.43;2.60;;;12.60;99.90;;;;;;5033357;28;20025;-72
2023/04/01 08:19:16;;;;;;;6.75;2.60;;;12.70;99.90;;;;;;5049320;28;20088;-72
2023/04/01 08:21:51;;;;;;;4.88;2.55;;;12.70;99.90;;;;;;5049049;28;20075;-73
2023/04/01 08:24:38;;;;;;;6.32;2.33;;;12.60;99.90;;;;;;5052051;28;20421;-73
2023/04/01 08:27:15;;;;;;;4.65;2.00;;;12.70;99.90;;;;;;5039018;28;20017;-72
2023/04/01 08:29:48;;;;;;;3.30;1.80;;;12.70;99.90;;;;;;5041324;28;20017;-70
2023/04/01 08:32:21;;;;;;;2.70;1.38;;;12.70;99.90;;;;;;5033050;28;20120;-72
2023/04/01 08:34:55;;;;;;;1.90;1.02;;;12.70;99.90;;;;;;5046251;28;20487;-70
2023/04/01 08:37:25;;;;;;;2.38;1.15;;;12.70;99.90;;;;;;5036103;28;20074;-70
2023/04/01 08:39:57;;;;;;;1.50;0.80;;;12.70;99.90;;;;;;5047465;28;20035;-71
2023/04/01 08:43:05;;;;;;;1.02;0.70;;;12.60;99.90;;;;;;5029417;28;20134;-71
2023/04/01 08:45:35;;;;;;;1.48;0.90;;;12.60;99.90;;;;;;5006136;28;20506;-70
2023/04/01 08:48:38;;;;;;;1.30;0.60;;;12.60;99.90;;;;;;5009636;28;20055;-71
2023/04/01 08:51:30;;;;;;;2.35;1.10;;;12.60;99.90;;;;;;5028657;28;20102;-73
2023/04/01 08:54:11;;;;;;;2.10;1.08;;;12.60;99.90;;;;;;5049734;28;20056;-72
2023/04/01 08:56:47;;;;;;;2.22;1.13;;;12.70;99.90;;;;;;5038861;28;20033;-71
2023/04/01 08:59:31;;;;;;;1.73;0.93;;;12.70;99.90;;;;;;5047167;28;20024;-71
2023/04/01 09:02:15;;;;;;;2.67;1.45;;;12.60;99.90;;;;;;5039842;28;20040;-71
2023/04/01 09:04:54;;;;;;;2.50;1.10;;;12.70;99.90;;;;;;5038205;28;20533;-72
2023/04/01 09:07:42;;;;;;;1.42;0.70;;;12.70;99.90;;;;;;5048317;28;20489;-71
2023/04/01 09:10:21;;;;;;;2.00;1.00;;;12.70;99.90;;;;;;5039040;28;20059;-70
2023/04/01 09:13:24;;;;;;;1.73;0.93;;;12.70;99.90;;;;;;5045041;28;20407;-70
2023/04/01 09:15:56;;;;;;;2.10;1.20;;;12.80;99.90;;;;;;5042209;28;20073;-71
2023/04/01 09:18:49;;;;;;;2.83;1.30;;;12.90;99.90;;;;;;5038824;28;20049;-71
2023/04/01 09:21:36;;;;;;;2.80;1.08;;;12.90;99.90;;;;;;5048557;28;20073;-70
2023/04/01 09:24:25;;;;;;;5.65;1.95;;;12.80;99.90;;;;;;5032250;28;20029;-71
2023/04/01 09:27:05;;;;;;;3.75;1.80;;;12.90;99.90;;;;;;5046384;28;20104;-71
2023/04/01 09:29:33;;;;;;;3.22;1.40;;;12.90;99.90;;;;;;5041155;28;20033;-71
2023/04/01 09:32:37;;;;;;;4.45;1.80;;;12.90;99.90;;;;;;5043795;28;20028;-70
2023/04/01 09:35:23;;;;;;;3.33;1.70;;;12.90;99.90;;;;;;5025429;28;20025;-71
2023/04/01 09:38:22;;;;;;;2.58;1.50;;;13.00;99.90;;;;;;5026645;28;20109;-73
2023/04/01 09:40:54;;;;;;;13.82;8.80;;;12.90;99.90;;;;;;5033622;28;20521;-72
2023/04/01 09:43:34;;;;;;;6.68;2.97;;;12.90;99.90;;;;;;5046439;28;20025;-71
2023/04/01 09:46:19;;;;;;;5.28;2.08;;;13.00;99.90;;;;;;5038992;28;20028;-72
2023/04/01 09:49:38;;;;;;;3.50;1.80;;;13.00;99.90;;;;;;5038170;28;20128;-72
2023/04/01 09:52:31;;;;;;;4.20;2.25;;;12.90;99.90;;;;;;5007023;28;20400;-73
2023/04/01 09:54:56;;;;;;;4.53;2.30;;;12.90;99.90;;;;;;5043701;28;20048;-72
2023/04/01 09:57:41;;;;;;;6.00;2.75;;;12.80;99.90;;;;;;5042719;28;20017;-72
2023/04/01 10:00:40;;;;;;;3.63;2.17;;;12.80;99.90;;;;;;5034074;28;20074;-73
2023/04/01 10:03:43;;;;;;;6.85;4.60;;;12.80;99.90;;;;;;5041914;28;20029;-72
2023/04/01 10:06:16;;;;;;;7.53;3.22;;;12.70;99.90;;;;;;5025599;28;20041;-72
2023/04/01 10:09:20;;;;;;;5.70;3.33;;;12.70;99.90;;;;;;5037973;28;20044;-73
2023/04/01 10:12:19;;;;;;;6.70;3.13;;;12.70;99.90;;;;;;5037614;28;20078;-71
2023/04/01 10:15:00;;;;;;;6.97;3.60;;;12.70;99.90;;;;;;5036699;28;20033;-72
2023/04/01 10:17:31;;;;;;;6.10;3.70;;;12.70;99.90;;;;;;5038179;28;20029;-73
2023/04/01 10:20:39;;;;;;;7.32;4.18;;;12.70;99.90;;;;;;5031371;28;20032;-72
2023/04/01 10:23:13;;;;;;;6.20;3.92;;;12.80;99.90;;;;;;5017689;28;20048;-72
2023/04/01 10:26:03;;;;;;;8.30;4.18;;;12.90;99.90;;;;;;5042805;28;20032;-73
2023/04/01 10:28:38;;;;;;;7.35;4.38;;;12.90;99.90;;;;;;5045185;28;20025;-73
2023/04/01 10:31:24;;;;;;;9.18;5.63;;;12.90;99.90;;;;;;5038622;28;20037;-72
2023/04/01 10:33:59;;;;;;;6.78;4.07;;;13.00;99.90;;;;;;5043243;28;20106;-72
2023/04/01 10:36:53;;;;;;;9.52;5.72;;;12.90;99.90;;;;;;5027932;28;20048;-72
2023/04/01 10:39:43;;;;;;;10.27;5.38;;;12.90;99.90;;;;;;5034015;28;20024;-73
2023/04/01 10:42:24;;;;;;;10.13;5.90;;;13.00;99.90;;;;;;5032697;28;20029;-72
2023/04/01 10:45:34;;;;;;;10.30;6.18;;;13.10;99.90;;;;;;5038672;28;20029;-73
2023/04/01 10:48:32;;;;;;;12.75;8.65;;;13.10;99.90;;;;;;5025495;28;20040;-72
2023/04/01 10:50:57;;;;;;;11.40;8.20;;;13.20;99.90;;;;;;5033395;28;20044;-73
2023/04/01 10:54:08;;;;;;;13.63;7.30;;;13.20;99.90;;;;;;5044762;28;20025;-74
2023/04/01 10:56:51;;;;;;;13.43;9.02;;;13.20;99.90;;;;;;5011985;28;20183;-73
2023/04/01 10:59:35;;;;;;;13.70;8.45;;;13.20;99.90;;;;;;5020915;28;20045;-72
2023/04/01 11:02:19;;;;;;;12.05;8.77;;;13.20;99.90;;;;;;5033456;28;20504;-73
2023/04/01 11:05:18;;;;;;;13.63;7.78;;;13.30;99.90;;;;;;5046587;28;20433;-73
2023/04/01 11:07:56;;;;;;;13.52;9.98;;;13.30;99.90;;;;;;5035318;28;20040;-74
2023/04/01 11:10:36;;;;;;;17.67;12.95;;;13.40;99.90;;;;;;5041357;28;20104;-73
2023/04/01 11:13:01;;;;;;;;;;;13.40;99.90;;;;;;5034553;28;20026;-74
2023/04/01 11:15:49;;;;;;;12.68;9.07;;;13.50;99.90;;;;;;5030570;28;19913;-73
2023/04/01 11:18:42;;;;;;;11.00;7.95;;;13.60;99.90;;;;;;5044135;28;20044;-73
2023/04/01 11:21:35;;;;;;;12.13;7.97;;;13.60;99.90;;;;;;5026777;28;20041;-73
2023/04/01 11:24:21;;;;;;;11.48;8.57;;;13.70;99.90;;;;;;5029008;28;20088;-73
2023/04/01 11:27:14;;;;;;;7.63;5.05;;;13.80;99.90;;;;;;5043624;28;20035;-74
2023/04/01 11:29:56;;;;;;;3.70;2.00;;;13.70;99.90;;;;;;5035356;28;20501;-73
2023/04/01 11:32:32;;;;;;;3.00;1.98;;;13.60;99.90;;;;;;5037434;28;20018;-75
2023/04/01 11:35:28;;;;;;;3.38;1.42;;;13.50;99.90;;;;;;5038010;28;20022;-75
2023/04/01 11:38:19;;;;;;;4.70;2.60;;;13.50;99.90;;;;;;5025607;28;20041;-74
2023/04/01 11:41:03;;;;;;;5.32;3.05;;;13.40;99.90;;;;;;5042431;28;20029;-74
2023/04/01 11:43:32;;;;;;;5.18;2.90;;;13.40;99.90;;;;;;5028218;28;20405;-74
2023/04/01 11:45:57;;;;;;;4.50;2.47;;;13.50;99.90;;;;;;5033596;28;20037;-75
2023/04/01 11:48:50;;;;;;;3.58;2.33;;;13.50;99.90;;;;;;5027726;28;20025;-74
2023/04/01 11:51:22;;;;;;;3.72;2.00;;;13.60;99.90;;;;;;5045200;28;20032;-73
2023/04/01 11:53:57;;;;;;;3.45;1.95;;;13.50;99.90;;;;;;5031142;28;20392;-74
2023/04/01 11:56:44;;;;;;;3.38;1.52;;;13.50;99.90;;;;;;5043767;28;20396;-75
2023/04/01 11:59:40;;;;;;;2.70;1.50;;;13.50;99.90;;;;;;5036438;28;20595;-75
2023/04/01 12:02:25;;;;;;;3.30;1.20;;;13.40;99.90;;;;;;5044745;28;20078;-75
2023/04/01 12:05:12;;;;;;;1.80;1.10;;;13.40;99.90;;;;;;5034071;28;20433;-74
2023/04/01 12:08:19;;;;;;;2.40;1.30;;;13.40;99.90;;;;;;5038259;28;20017;-74
2023/04/01 12:11:03;;;;;;;3.97;1.55;;;13.30;99.90;;;;;;5042165;28;20527;-74
2023/04/01 12:13:47;;;;;;;3.95;1.30;;;13.30;99.90;;;;;;5044069;28;20025;-74
2023/04/01 12:16:12;;;;;;;3.15;1.55;;;13.30;99.90;;;;;;5050043;28;20468;-74
2023/04/01 12:18:49;;;;;;;2.40;1.00;;;13.30;99.90;;;;;;5047927;28;20060;-74
2023/04/01 12:21:29;;;;;;;3.53;1.50;;;13.30;99.90;;;;;;5040567;28;20048;-73
2023/04/01 12:24:13;;;;;;;2.65;1.42;;;13.20;99.90;;;;;;5047500;28;20055;-73
2023/04/01 12:27:13;;;;;;;3.22;1.73;;;13.30;99.90;;;;;;5042726;28;20091;-74
2023/04/01 12:30:01;;;;;;;4.90;2.20;;;13.20;99.90;;;;;;5030002;28;20030;-74
2023/04/01 12:32:55;;;;;;;4.00;2.10;;;13.20;99.90;;;;;;5047110;28;20013;-74
2023/04/01 12:35:26;;;;;;;4.93;2.90;;;13.10;99.90;;;;;;5050460;28;20033;-74
2023/04/01 12:38:10;;;;;;;5.38;2.78;;;13.10;99.90;;;;;;5047805;28;20503;-74
2023/04/01 12:41:07;;;;;;;4.90;2.50;;;13.10;99.90;;;;;;5050514;28;20160;-74
2023/04/01 12:43:48;;;;;;;5.47;2.30;;;13.20;99.90;;;;;;5047684;28;20029;-74
2023/04/01 12:46:38;;;;;;;4.82;2.70;;;13.20;99.90;;;;;;5033995;28;20491;-74
2023/04/01 12:49:25;;;;;;;6.57;3.17;;;13.20;99.90;;;;;;5038699;28;20155;-74
2023/04/01 12:52:09;;;;;;;5.18;3.00;;;13.20;99.90;;;;;;5042454;28;20025;-73
2023/04/01 12:55:05;;;;;;;5.13;2.95;;;13.20;99.90;;;;;;5042120;28;20033;-74
2023/04/01 12:57:37;;;;;;;5.65;3.33;;;13.30;99.90;;;;;;5040301;28;20033;-73
2023/04/01 13:00:56;;;;;;;4.63;2.70;;;13.30;99.90;;;;;;5046010;28;20033;-73
2023/04/01 13:03:33;;;;;;;6.18;3.10;;;13.30;99.90;;;;;;5038750;28;20048;-74
2023/04/01 13:06:20;;;;;;;8.35;5.22;;;13.40;99.90;;;;;;5042472;28;20380;-74
2023/04/01 13:09:01;;;;;;;8.82;7.93;;;13.40;99.90;;;;;;5044910;28;20033;-73
2023/04/01 13:11:41;;;;;;;5.95;3.78;;;13.40;99.90;;;;;;5037421;28;20029;-74
2023/04/01 13:14:41;;;;;;;4.90;3.38;;;13.50;99.90;;;;;;5048356;28;20483;-73
2023/04/01 13:17:31;;;;;;;4.70;2.28;;;13.50;99.90;;;;;;5046864;28;20021;-74
2023/04/01 13:20:06;;;;;;;6.88;3.00;;;13.50;99.90;;;;;;5032986;28;20040;-73
2023/04/01 13:23:09;;;;;;;5.25;3.42;;;13.60;99.90;;;;;;5034060;28;20029;-74
2023/04/01 13:25:54;;;;;;;5.32;3.15;;;13.60;99.90;;;;;;5048376;28;20025;-74
2023/04/01 13:28:28;;;;;;;4.60;2.83;;;13.70;99.90;;;;;;5041469;28;20017;-73